sensor_id;sensor_type;location;lat;lon;timestamp;P1;durP1;ratioP1;P2;durP2;ratioP2
41861;SDS011;27537;57.134;-2.136;2022-08-20T00:00:40;3.15;;;1.00;;
41861;SDS011;27537;57.134;-2.136;2022-08-20T00:08:36;4.38;;;0.98;;
41861;SDS011;27537;57.134;-2.136;2022-08-20T00:11:05;4.53;;;1.20;;
41861;SDS011;27537;57.134;-2.136;2022-08-20T00:13:38;6.82;;;1.52;;
41861;SDS011;27537;57.134;-2.136;2022-08-20T00:16:09;5.40;;;1.20;;
41861;SDS011;27537;57.134;-2.136;2022-08-20T00:18:38;6.53;;;1.30;;
41861;SDS011;27537;57.134;-2.136;2022-08-20T00:21:08;5.70;;;1.25;;
41861;SDS011;27537;57.134;-2.136;2022-08-20T00:23:45;5.60;;;1.10;;
41861;SDS011;27537;57.134;-2.136;2022-08-20T00:26:13;5.00;;;1.35;;
41861;SDS011;27537;57.134;-2.136;2022-08-20T00:28:41;5.28;;;1.15;;
41861;SDS011;27537;57.134;-2.136;2022-08-20T00:31:09;5.47;;;1.13;;
41861;SDS011;27537;57.134;-2.136;2022-08-20T00:33:37;3.95;;;1.23;;
41861;SDS011;27537;57.134;-2.136;2022-08-20T00:36:05;5.75;;;1.05;;
41861;SDS011;27537;57.134;-2.136;2022-08-20T00:38:35;3.95;;;1.05;;
41861;SDS011;27537;57.134;-2.136;2022-08-20T00:41:03;4.55;;;1.10;;
41861;SDS011;27537;57.134;-2.136;2022-08-20T00:46:10;7.78;;;1.10;;
41861;SDS011;27537;57.134;-2.136;2022-08-20T00:48:43;2.60;;;0.90;;
41861;SDS011;27537;57.134;-2.136;2022-08-20T00:51:17;3.67;;;1.15;;
41861;SDS011;27537;57.134;-2.136;2022-08-20T00:53:55;6.15;;;1.38;;
41861;SDS011;27537;57.134;-2.136;2022-08-20T00:56:29;5.63;;;1.50;;
41861;SDS011;27537;57.134;-2.136;2022-08-20T00:58:58;7.45;;;1.33;;
41861;SDS011;27537;57.134;-2.136;2022-08-20T01:01:26;3.40;;;0.98;;
41861;SDS011;27537;57.134;-2.136;2022-08-20T01:03:53;3.83;;;1.05;;
41861;SDS011;27537;57.134;-2.136;2022-08-20T01:06:22;4.45;;;1.00;;
41861;SDS011;27537;57.134;-2.136;2022-08-20T01:08:50;6.35;;;1.10;;
41861;SDS011;27537;57.134;-2.136;2022-08-20T01:11:17;3.80;;;1.08;;
41861;SDS011;27537;57.134;-2.136;2022-08-20T01:13:47;3.85;;;1.00;;
41861;SDS011;27537;57.134;-2.136;2022-08-20T01:16:17;8.75;;;1.27;;
41861;SDS011;27537;57.134;-2.136;2022-08-20T01:18:49;3.80;;;1.13;;
41861;SDS011;27537;57.134;-2.136;2022-08-20T01:21:18;4.32;;;1.17;;
41861;SDS011;27537;57.134;-2.136;2022-08-20T01:24:02;3.33;;;0.90;;
41861;SDS011;27537;57.134;-2.136;2022-08-20T01:26:38;3.45;;;1.02;;
41861;SDS011;27537;57.134;-2.136;2022-08-20T01:29:18;5.53;;;1.10;;
41861;SDS011;27537;57.134;-2.136;2022-08-20T01:31:49;5.05;;;1.08;;
41861;SDS011;27537;57.134;-2.136;2022-08-20T01:34:16;7.53;;;1.05;;
41861;SDS011;27537;57.134;-2.136;2022-08-20T01:36:46;4.90;;;0.88;;
41861;SDS011;27537;57.134;-2.136;2022-08-20T01:39:17;3.05;;;1.00;;
41861;SDS011;27537;57.134;-2.136;2022-08-20T01:41:48;6.47;;;1.10;;
41861;SDS011;27537;57.134;-2.136;2022-08-20T01:44:24;4.30;;;1.30;;
41861;SDS011;27537;57.134;-2.136;2022-08-20T01:46:52;4.60;;;1.10;;
41861;SDS011;27537;57.134;-2.136;2022-08-20T01:49:24;5.30;;;1.20;;
41861;SDS011;27537;57.134;-2.136;2022-08-20T01:51:59;5.55;;;1.30;;
41861;SDS011;27537;57.134;-2.136;2022-08-20T01:54:28;5.18;;;1.13;;
41861;SDS011;27537;57.134;-2.136;2022-08-20T01:57:03;7.00;;;1.40;;
41861;SDS011;27537;57.134;-2.136;2022-08-20T01:59:35;3.63;;;0.90;;
41861;SDS011;27537;57.134;-2.136;2022-08-20T02:02:02;6.28;;;1.17;;
41861;SDS011;27537;57.134;-2.136;2022-08-20T02:04:29;5.88;;;1.58;;
41861;SDS011;27537;57.134;-2.136;2022-08-20T02:06:57;6.25;;;1.38;;
41861;SDS011;27537;57.134;-2.136;2022-08-20T02:09:35;4.97;;;1.08;;
41861;SDS011;27537;57.134;-2.136;2022-08-20T02:12:06;5.28;;;1.40;;
41861;SDS011;27537;57.134;-2.136;2022-08-20T02:14:34;9.93;;;1.77;;
41861;SDS011;27537;57.134;-2.136;2022-08-20T02:17:05;5.38;;;1.40;;
41861;SDS011;27537;57.134;-2.136;2022-08-20T02:19:37;7.47;;;1.38;;
41861;SDS011;27537;57.134;-2.136;2022-08-20T02:22:10;10.50;;;1.90;;
41861;SDS011;27537;57.134;-2.136;2022-08-20T02:24:43;10.73;;;1.60;;
41861;SDS011;27537;57.134;-2.136;2022-08-20T02:27:10;9.02;;;1.98;;
41861;SDS011;27537;57.134;-2.136;2022-08-20T02:29:37;8.02;;;1.60;;
41861;SDS011;27537;57.134;-2.136;2022-08-20T02:32:04;9.82;;;1.88;;
41861;SDS011;27537;57.134;-2.136;2022-08-20T02:34:51;11.25;;;1.80;;
41861;SDS011;27537;57.134;-2.136;2022-08-20T02:37:18;12.82;;;2.08;;
41861;SDS011;27537;57.134;-2.136;2022-08-20T02:39:45;6.43;;;1.20;;
41861;SDS011;27537;57.134;-2.136;2022-08-20T02:42:12;9.73;;;2.10;;
41861;SDS011;27537;57.134;-2.136;2022-08-20T02:44:39;6.40;;;1.60;;
41861;SDS011;27537;57.134;-2.136;2022-08-20T02:47:07;9.77;;;1.88;;
41861;SDS011;27537;57.134;-2.136;2022-08-20T02:49:33;10.18;;;2.35;;
41861;SDS011;27537;57.134;-2.136;2022-08-20T02:52:00;8.65;;;1.60;;
41861;SDS011;27537;57.134;-2.136;2022-08-20T02:54:27;11.40;;;1.65;;
41861;SDS011;27537;57.134;-2.136;2022-08-20T02:56:54;9.82;;;1.63;;
41861;SDS011;27537;57.134;-2.136;2022-08-20T02:59:21;7.95;;;1.50;;
41861;SDS011;27537;57.134;-2.136;2022-08-20T03:01:48;6.10;;;1.60;;
41861;SDS011;27537;57.134;-2.136;2022-08-20T03:04:26;9.52;;;1.55;;
41861;SDS011;27537;57.134;-2.136;2022-08-20T03:06:57;8.38;;;1.70;;
41861;SDS011;27537;57.134;-2.136;2022-08-20T03:09:24;4.93;;;1.27;;
41861;SDS011;27537;57.134;-2.136;2022-08-20T03:11:51;6.53;;;1.40;;
41861;SDS011;27537;57.134;-2.136;2022-08-20T03:14:18;6.50;;;1.40;;
41861;SDS011;27537;57.134;-2.136;2022-08-20T03:16:44;7.50;;;1.50;;
41861;SDS011;27537;57.134;-2.136;2022-08-20T03:19:11;5.28;;;1.20;;
41861;SDS011;27537;57.134;-2.136;2022-08-20T03:21:39;10.02;;;1.58;;
41861;SDS011;27537;57.134;-2.136;2022-08-20T03:24:06;5.80;;;1.40;;
41861;SDS011;27537;57.134;-2.136;2022-08-20T03:26:33;6.63;;;1.50;;
41861;SDS011;27537;57.134;-2.136;2022-08-20T03:29:00;6.57;;;1.40;;
41861;SDS011;27537;57.134;-2.136;2022-08-20T03:31:27;6.82;;;1.40;;
41861;SDS011;27537;57.134;-2.136;2022-08-20T03:33:55;3.55;;;1.10;;
41861;SDS011;27537;57.134;-2.136;2022-08-20T03:36:22;4.68;;;1.20;;
41861;SDS011;27537;57.134;-2.136;2022-08-20T03:38:58;4.87;;;1.20;;
41861;SDS011;27537;57.134;-2.136;2022-08-20T03:41:26;4.50;;;1.63;;
41861;SDS011;27537;57.134;-2.136;2022-08-20T03:43:53;7.32;;;1.63;;
41861;SDS011;27537;57.134;-2.136;2022-08-20T03:46:21;6.78;;;1.50;;
41861;SDS011;27537;57.134;-2.136;2022-08-20T03:48:52;5.50;;;1.10;;
41861;SDS011;27537;57.134;-2.136;2022-08-20T03:51:27;5.63;;;1.20;;
41861;SDS011;27537;57.134;-2.136;2022-08-20T03:53:54;4.50;;;1.27;;
41861;SDS011;27537;57.134;-2.136;2022-08-20T03:56:21;5.47;;;1.50;;
41861;SDS011;27537;57.134;-2.136;2022-08-20T03:58:48;11.77;;;1.92;;
41861;SDS011;27537;57.134;-2.136;2022-08-20T04:01:15;11.13;;;2.38;;
41861;SDS011;27537;57.134;-2.136;2022-08-20T04:04:02;12.48;;;2.05;;
41861;SDS011;27537;57.134;-2.136;2022-08-20T04:06:30;9.75;;;1.77;;
41861;SDS011;27537;57.134;-2.136;2022-08-20T04:08:57;7.28;;;1.65;;
41861;SDS011;27537;57.134;-2.136;2022-08-20T04:11:23;11.18;;;2.40;;
41861;SDS011;27537;57.134;-2.136;2022-08-20T04:13:50;14.50;;;2.13;;
41861;SDS011;27537;57.134;-2.136;2022-08-20T04:16:17;26.15;;;2.65;;
41861;SDS011;27537;57.134;-2.136;2022-08-20T04:18:44;12.10;;;2.10;;
41861;SDS011;27537;57.134;-2.136;2022-08-20T04:21:28;13.77;;;2.30;;
41861;SDS011;27537;57.134;-2.136;2022-08-20T04:23:58;7.95;;;1.58;;
41861;SDS011;27537;57.134;-2.136;2022-08-20T04:26:26;10.85;;;2.03;;
41861;SDS011;27537;57.134;-2.136;2022-08-20T04:28:53;7.60;;;1.73;;
41861;SDS011;27537;57.134;-2.136;2022-08-20T04:31:21;7.45;;;1.70;;
41861;SDS011;27537;57.134;-2.136;2022-08-20T04:34:01;12.85;;;2.40;;
41861;SDS011;27537;57.134;-2.136;2022-08-20T04:36:29;10.63;;;1.92;;
41861;SDS011;27537;57.134;-2.136;2022-08-20T04:38:56;12.77;;;2.20;;
41861;SDS011;27537;57.134;-2.136;2022-08-20T04:41:23;10.90;;;2.20;;
41861;SDS011;27537;57.134;-2.136;2022-08-20T04:43:51;11.15;;;1.95;;
41861;SDS011;27537;57.134;-2.136;2022-08-20T04:46:20;8.73;;;1.90;;
41861;SDS011;27537;57.134;-2.136;2022-08-20T04:48:51;17.63;;;2.60;;
41861;SDS011;27537;57.134;-2.136;2022-08-20T04:51:18;9.73;;;2.05;;
41861;SDS011;27537;57.134;-2.136;2022-08-20T04:53:50;11.00;;;2.55;;
41861;SDS011;27537;57.134;-2.136;2022-08-20T04:56:22;13.23;;;2.65;;
41861;SDS011;27537;57.134;-2.136;2022-08-20T04:58:52;8.98;;;2.22;;
41861;SDS011;27537;57.134;-2.136;2022-08-20T05:01:21;17.90;;;3.30;;
41861;SDS011;27537;57.134;-2.136;2022-08-20T05:03:49;12.02;;;2.15;;
41861;SDS011;27537;57.134;-2.136;2022-08-20T05:06:16;17.55;;;3.05;;
41861;SDS011;27537;57.134;-2.136;2022-08-20T05:08:43;13.15;;;2.65;;
41861;SDS011;27537;57.134;-2.136;2022-08-20T05:11:11;11.45;;;2.58;;
41861;SDS011;27537;57.134;-2.136;2022-08-20T05:13:59;7.72;;;2.05;;
41861;SDS011;27537;57.134;-2.136;2022-08-20T05:16:26;9.80;;;2.50;;
41861;SDS011;27537;57.134;-2.136;2022-08-20T05:18:53;10.27;;;2.10;;
41861;SDS011;27537;57.134;-2.136;2022-08-20T05:21:20;11.20;;;2.17;;
41861;SDS011;27537;57.134;-2.136;2022-08-20T05:23:47;14.18;;;1.98;;
41861;SDS011;27537;57.134;-2.136;2022-08-20T05:26:14;9.43;;;2.10;;
41861;SDS011;27537;57.134;-2.136;2022-08-20T05:28:42;9.32;;;1.67;;
41861;SDS011;27537;57.134;-2.136;2022-08-20T05:31:24;13.30;;;2.35;;
41861;SDS011;27537;57.134;-2.136;2022-08-20T05:34:08;9.27;;;2.30;;
41861;SDS011;27537;57.134;-2.136;2022-08-20T05:36:38;10.95;;;2.20;;
41861;SDS011;27537;57.134;-2.136;2022-08-20T05:39:08;13.50;;;2.15;;
41861;SDS011;27537;57.134;-2.136;2022-08-20T05:41:36;8.18;;;2.03;;
41861;SDS011;27537;57.134;-2.136;2022-08-20T05:44:04;11.77;;;3.30;;
41861;SDS011;27537;57.134;-2.136;2022-08-20T05:46:38;17.25;;;2.45;;
41861;SDS011;27537;57.134;-2.136;2022-08-20T05:49:07;15.88;;;2.28;;
41861;SDS011;27537;57.134;-2.136;2022-08-20T05:51:35;14.40;;;2.42;;
41861;SDS011;27537;57.134;-2.136;2022-08-20T05:54:03;8.60;;;2.25;;
41861;SDS011;27537;57.134;-2.136;2022-08-20T05:56:31;14.25;;;2.45;;
41861;SDS011;27537;57.134;-2.136;2022-08-20T05:58:59;8.43;;;2.03;;
41861;SDS011;27537;57.134;-2.136;2022-08-20T06:01:29;14.68;;;3.00;;
41861;SDS011;27537;57.134;-2.136;2022-08-20T06:03:57;13.48;;;2.55;;
41861;SDS011;27537;57.134;-2.136;2022-08-20T06:06:42;7.75;;;2.25;;
41861;SDS011;27537;57.134;-2.136;2022-08-20T06:09:15;13.77;;;2.60;;
41861;SDS011;27537;57.134;-2.136;2022-08-20T06:12:01;8.18;;;2.13;;
41861;SDS011;27537;57.134;-2.136;2022-08-20T06:14:31;12.25;;;3.47;;
41861;SDS011;27537;57.134;-2.136;2022-08-20T06:17:03;8.20;;;1.88;;
41861;SDS011;27537;57.134;-2.136;2022-08-20T06:19:32;10.07;;;2.10;;
41861;SDS011;27537;57.134;-2.136;2022-08-20T06:22:00;7.97;;;2.05;;
41861;SDS011;27537;57.134;-2.136;2022-08-20T06:24:42;8.38;;;2.30;;
41861;SDS011;27537;57.134;-2.136;2022-08-20T06:27:11;9.27;;;2.05;;
41861;SDS011;27537;57.134;-2.136;2022-08-20T06:29:40;9.40;;;2.08;;
41861;SDS011;27537;57.134;-2.136;2022-08-20T06:32:07;10.40;;;1.90;;
41861;SDS011;27537;57.134;-2.136;2022-08-20T06:34:34;18.65;;;2.70;;
41861;SDS011;27537;57.134;-2.136;2022-08-20T06:37:00;12.25;;;2.25;;
41861;SDS011;27537;57.134;-2.136;2022-08-20T06:39:27;10.55;;;2.35;;
41861;SDS011;27537;57.134;-2.136;2022-08-20T06:41:56;9.32;;;2.15;;
41861;SDS011;27537;57.134;-2.136;2022-08-20T06:44:24;12.25;;;2.95;;
41861;SDS011;27537;57.134;-2.136;2022-08-20T06:46:51;18.70;;;3.33;;
41861;SDS011;27537;57.134;-2.136;2022-08-20T06:49:18;13.07;;;2.65;;
41861;SDS011;27537;57.134;-2.136;2022-08-20T06:51:44;17.02;;;2.50;;
41861;SDS011;27537;57.134;-2.136;2022-08-20T06:54:17;16.52;;;4.28;;
41861;SDS011;27537;57.134;-2.136;2022-08-20T06:56:43;13.50;;;3.13;;
41861;SDS011;27537;57.134;-2.136;2022-08-20T06:59:10;14.00;;;3.03;;
41861;SDS011;27537;57.134;-2.136;2022-08-20T07:01:37;18.88;;;3.67;;
41861;SDS011;27537;57.134;-2.136;2022-08-20T07:04:04;14.93;;;3.15;;
41861;SDS011;27537;57.134;-2.136;2022-08-20T07:06:32;20.13;;;3.67;;
41861;SDS011;27537;57.134;-2.136;2022-08-20T07:08:59;12.65;;;2.92;;
41861;SDS011;27537;57.134;-2.136;2022-08-20T07:11:26;15.55;;;3.50;;
41861;SDS011;27537;57.134;-2.136;2022-08-20T07:13:55;16.65;;;3.58;;
41861;SDS011;27537;57.134;-2.136;2022-08-20T07:16:23;17.20;;;3.08;;
41861;SDS011;27537;57.134;-2.136;2022-08-20T07:18:50;13.05;;;3.03;;
41861;SDS011;27537;57.134;-2.136;2022-08-20T07:21:17;14.15;;;2.75;;
41861;SDS011;27537;57.134;-2.136;2022-08-20T07:23:44;16.30;;;2.90;;
41861;SDS011;27537;57.134;-2.136;2022-08-20T07:26:11;16.73;;;3.33;;
41861;SDS011;27537;57.134;-2.136;2022-08-20T07:28:38;15.40;;;4.05;;
41861;SDS011;27537;57.134;-2.136;2022-08-20T07:31:05;18.30;;;3.88;;
41861;SDS011;27537;57.134;-2.136;2022-08-20T07:33:52;21.13;;;3.65;;
41861;SDS011;27537;57.134;-2.136;2022-08-20T07:36:19;15.18;;;3.55;;
41861;SDS011;27537;57.134;-2.136;2022-08-20T07:38:46;15.00;;;3.25;;
41861;SDS011;27537;57.134;-2.136;2022-08-20T07:41:13;19.33;;;3.58;;
41861;SDS011;27537;57.134;-2.136;2022-08-20T07:43:41;14.38;;;3.80;;
41861;SDS011;27537;57.134;-2.136;2022-08-20T07:46:14;18.27;;;3.33;;
41861;SDS011;27537;57.134;-2.136;2022-08-20T07:48:46;12.27;;;2.38;;
41861;SDS011;27537;57.134;-2.136;2022-08-20T07:51:16;20.15;;;3.97;;
41861;SDS011;27537;57.134;-2.136;2022-08-20T07:53:45;19.10;;;3.55;;
41861;SDS011;27537;57.134;-2.136;2022-08-20T07:56:14;11.77;;;2.50;;
41861;SDS011;27537;57.134;-2.136;2022-08-20T07:58:45;12.82;;;2.65;;
41861;SDS011;27537;57.134;-2.136;2022-08-20T08:01:20;11.98;;;2.45;;
41861;SDS011;27537;57.134;-2.136;2022-08-20T08:03:52;14.88;;;3.17;;
41861;SDS011;27537;57.134;-2.136;2022-08-20T08:06:21;13.70;;;3.45;;
41861;SDS011;27537;57.134;-2.136;2022-08-20T08:09:06;15.95;;;3.03;;
41861;SDS011;27537;57.134;-2.136;2022-08-20T08:11:36;13.50;;;2.20;;
41861;SDS011;27537;57.134;-2.136;2022-08-20T08:14:12;16.02;;;3.03;;
41861;SDS011;27537;57.134;-2.136;2022-08-20T08:16:39;17.48;;;3.55;;
41861;SDS011;27537;57.134;-2.136;2022-08-20T08:19:10;15.25;;;2.90;;
41861;SDS011;27537;57.134;-2.136;2022-08-20T08:21:40;18.33;;;3.00;;
41861;SDS011;27537;57.134;-2.136;2022-08-20T08:24:07;18.15;;;3.42;;
41861;SDS011;27537;57.134;-2.136;2022-08-20T08:26:34;9.43;;;2.17;;
41861;SDS011;27537;57.134;-2.136;2022-08-20T08:29:01;12.75;;;2.70;;
41861;SDS011;27537;57.134;-2.136;2022-08-20T08:31:28;11.50;;;2.60;;
41861;SDS011;27537;57.134;-2.136;2022-08-20T08:33:55;12.05;;;3.08;;
41861;SDS011;27537;57.134;-2.136;2022-08-20T08:36:22;10.50;;;2.35;;
41861;SDS011;27537;57.134;-2.136;2022-08-20T08:38:51;8.73;;;2.10;;
41861;SDS011;27537;57.134;-2.136;2022-08-20T08:41:23;8.77;;;2.30;;
41861;SDS011;27537;57.134;-2.136;2022-08-20T08:44:05;11.20;;;2.25;;
41861;SDS011;27537;57.134;-2.136;2022-08-20T08:46:40;14.45;;;2.60;;
41861;SDS011;27537;57.134;-2.136;2022-08-20T08:49:10;7.65;;;2.17;;
41861;SDS011;27537;57.134;-2.136;2022-08-20T08:51:47;13.25;;;2.20;;
41861;SDS011;27537;57.134;-2.136;2022-08-20T08:54:22;7.80;;;1.83;;
41861;SDS011;27537;57.134;-2.136;2022-08-20T08:56:52;8.63;;;1.90;;
41861;SDS011;27537;57.134;-2.136;2022-08-20T08:59:20;8.93;;;2.10;;
41861;SDS011;27537;57.134;-2.136;2022-08-20T09:01:49;8.05;;;1.80;;
41861;SDS011;27537;57.134;-2.136;2022-08-20T09:04:27;6.35;;;1.75;;
41861;SDS011;27537;57.134;-2.136;2022-08-20T09:06:58;5.75;;;1.45;;
41861;SDS011;27537;57.134;-2.136;2022-08-20T09:09:29;7.65;;;1.60;;
41861;SDS011;27537;57.134;-2.136;2022-08-20T09:12:04;7.97;;;1.50;;
41861;SDS011;27537;57.134;-2.136;2022-08-20T09:14:33;6.47;;;1.25;;
41861;SDS011;27537;57.134;-2.136;2022-08-20T09:17:01;7.28;;;1.58;;
41861;SDS011;27537;57.134;-2.136;2022-08-20T09:19:28;4.78;;;1.15;;
41861;SDS011;27537;57.134;-2.136;2022-08-20T09:21:55;5.85;;;1.30;;
41861;SDS011;27537;57.134;-2.136;2022-08-20T09:24:22;6.35;;;1.50;;
41861;SDS011;27537;57.134;-2.136;2022-08-20T09:26:49;7.70;;;1.55;;
41861;SDS011;27537;57.134;-2.136;2022-08-20T09:29:16;6.05;;;1.70;;
41861;SDS011;27537;57.134;-2.136;2022-08-20T09:31:43;7.25;;;1.70;;
41861;SDS011;27537;57.134;-2.136;2022-08-20T09:34:11;5.32;;;1.40;;
41861;SDS011;27537;57.134;-2.136;2022-08-20T09:36:38;5.55;;;1.42;;
41861;SDS011;27537;57.134;-2.136;2022-08-20T09:39:05;6.93;;;1.50;;
41861;SDS011;27537;57.134;-2.136;2022-08-20T09:41:32;6.13;;;1.40;;
41861;SDS011;27537;57.134;-2.136;2022-08-20T09:44:00;4.05;;;1.30;;
41861;SDS011;27537;57.134;-2.136;2022-08-20T09:46:28;4.97;;;1.40;;
41861;SDS011;27537;57.134;-2.136;2022-08-20T09:48:55;4.15;;;1.10;;
41861;SDS011;27537;57.134;-2.136;2022-08-20T09:51:23;5.30;;;1.48;;
41861;SDS011;27537;57.134;-2.136;2022-08-20T09:53:50;4.28;;;1.40;;
41861;SDS011;27537;57.134;-2.136;2022-08-20T09:56:18;4.30;;;1.30;;
41861;SDS011;27537;57.134;-2.136;2022-08-20T09:58:46;4.88;;;1.30;;
41861;SDS011;27537;57.134;-2.136;2022-08-20T10:01:16;6.07;;;1.33;;
41861;SDS011;27537;57.134;-2.136;2022-08-20T10:03:45;4.45;;;1.33;;
41861;SDS011;27537;57.134;-2.136;2022-08-20T10:06:14;4.65;;;1.50;;
41861;SDS011;27537;57.134;-2.136;2022-08-20T10:08:43;3.13;;;1.05;;
41861;SDS011;27537;57.134;-2.136;2022-08-20T10:11:12;4.78;;;1.35;;
41861;SDS011;27537;57.134;-2.136;2022-08-20T10:13:39;5.20;;;1.35;;
41861;SDS011;27537;57.134;-2.136;2022-08-20T10:16:05;4.28;;;1.23;;
41861;SDS011;27537;57.134;-2.136;2022-08-20T10:18:33;5.82;;;1.50;;
41861;SDS011;27537;57.134;-2.136;2022-08-20T10:21:00;4.00;;;1.17;;
41861;SDS011;27537;57.134;-2.136;2022-08-20T10:23:27;7.00;;;2.10;;
41861;SDS011;27537;57.134;-2.136;2022-08-20T10:25:54;7.00;;;1.50;;
41861;SDS011;27537;57.134;-2.136;2022-08-20T10:28:21;5.47;;;1.30;;
41861;SDS011;27537;57.134;-2.136;2022-08-20T10:30:51;2.55;;;0.90;;
41861;SDS011;27537;57.134;-2.136;2022-08-20T10:33:18;2.67;;;0.90;;
41861;SDS011;27537;57.134;-2.136;2022-08-20T10:35:45;3.85;;;0.80;;
41861;SDS011;27537;57.134;-2.136;2022-08-20T10:38:12;2.97;;;0.90;;
41861;SDS011;27537;57.134;-2.136;2022-08-20T10:40:39;6.15;;;1.27;;
41861;SDS011;27537;57.134;-2.136;2022-08-20T10:43:17;5.20;;;0.90;;
41861;SDS011;27537;57.134;-2.136;2022-08-20T10:45:44;6.45;;;0.90;;
41861;SDS011;27537;57.134;-2.136;2022-08-20T10:48:11;5.70;;;1.00;;
41861;SDS011;27537;57.134;-2.136;2022-08-20T10:50:37;5.00;;;1.10;;
41861;SDS011;27537;57.134;-2.136;2022-08-20T10:53:04;7.35;;;1.15;;
41861;SDS011;27537;57.134;-2.136;2022-08-20T10:55:31;4.45;;;1.13;;
41861;SDS011;27537;57.134;-2.136;2022-08-20T10:57:58;5.90;;;1.17;;
41861;SDS011;27537;57.134;-2.136;2022-08-20T11:00:25;6.10;;;1.25;;
41861;SDS011;27537;57.134;-2.136;2022-08-20T11:02:52;6.38;;;1.17;;
41861;SDS011;27537;57.134;-2.136;2022-08-20T11:05:20;7.55;;;1.10;;
41861;SDS011;27537;57.134;-2.136;2022-08-20T11:07:47;9.68;;;1.80;;
41861;SDS011;27537;57.134;-2.136;2022-08-20T11:10:23;7.50;;;1.33;;
41861;SDS011;27537;57.134;-2.136;2022-08-20T11:12:51;4.95;;;1.30;;
41861;SDS011;27537;57.134;-2.136;2022-08-20T11:15:18;10.82;;;2.17;;
41861;SDS011;27537;57.134;-2.136;2022-08-20T11:17:45;7.47;;;1.58;;
41861;SDS011;27537;57.134;-2.136;2022-08-20T11:20:13;7.00;;;1.30;;
41861;SDS011;27537;57.134;-2.136;2022-08-20T11:22:42;6.10;;;1.35;;
41861;SDS011;27537;57.134;-2.136;2022-08-20T11:25:09;4.30;;;1.13;;
41861;SDS011;27537;57.134;-2.136;2022-08-20T11:27:38;8.90;;;1.83;;
41861;SDS011;27537;57.134;-2.136;2022-08-20T11:30:09;4.13;;;1.10;;
41861;SDS011;27537;57.134;-2.136;2022-08-20T11:32:37;5.00;;;0.98;;
41861;SDS011;27537;57.134;-2.136;2022-08-20T11:35:05;7.07;;;1.30;;
41861;SDS011;27537;57.134;-2.136;2022-08-20T11:37:53;7.72;;;1.48;;
41861;SDS011;27537;57.134;-2.136;2022-08-20T11:40:21;6.20;;;1.10;;
41861;SDS011;27537;57.134;-2.136;2022-08-20T11:42:49;7.35;;;1.35;;
41861;SDS011;27537;57.134;-2.136;2022-08-20T11:45:36;5.25;;;1.13;;
41861;SDS011;27537;57.134;-2.136;2022-08-20T11:48:03;6.47;;;1.42;;
41861;SDS011;27537;57.134;-2.136;2022-08-20T11:50:30;9.32;;;1.48;;
41861;SDS011;27537;57.134;-2.136;2022-08-20T11:52:57;7.03;;;1.30;;
41861;SDS011;27537;57.134;-2.136;2022-08-20T11:55:27;5.65;;;1.17;;
41861;SDS011;27537;57.134;-2.136;2022-08-20T11:57:56;4.78;;;1.20;;
41861;SDS011;27537;57.134;-2.136;2022-08-20T12:00:26;6.88;;;1.20;;
41861;SDS011;27537;57.134;-2.136;2022-08-20T12:02:59;6.78;;;1.20;;
41861;SDS011;27537;57.134;-2.136;2022-08-20T12:05:26;6.47;;;1.52;;
41861;SDS011;27537;57.134;-2.136;2022-08-20T12:07:56;5.68;;;1.17;;
41861;SDS011;27537;57.134;-2.136;2022-08-20T12:10:25;8.85;;;1.50;;
41861;SDS011;27537;57.134;-2.136;2022-08-20T12:12:53;7.90;;;1.25;;
41861;SDS011;27537;57.134;-2.136;2022-08-20T12:15:22;5.57;;;0.98;;
41861;SDS011;27537;57.134;-2.136;2022-08-20T12:17:49;4.35;;;0.90;;
41861;SDS011;27537;57.134;-2.136;2022-08-20T12:20:16;9.35;;;1.45;;
41861;SDS011;27537;57.134;-2.136;2022-08-20T12:22:43;7.13;;;1.30;;
41861;SDS011;27537;57.134;-2.136;2022-08-20T12:25:10;6.60;;;1.30;;
41861;SDS011;27537;57.134;-2.136;2022-08-20T12:27:38;8.15;;;1.05;;
41861;SDS011;27537;57.134;-2.136;2022-08-20T12:30:07;8.73;;;1.35;;
41861;SDS011;27537;57.134;-2.136;2022-08-20T12:32:37;8.82;;;1.45;;
41861;SDS011;27537;57.134;-2.136;2022-08-20T12:35:05;5.95;;;1.23;;
41861;SDS011;27537;57.134;-2.136;2022-08-20T12:37:32;8.32;;;1.35;;
41861;SDS011;27537;57.134;-2.136;2022-08-20T12:40:00;7.60;;;1.67;;
41861;SDS011;27537;57.134;-2.136;2022-08-20T12:42:28;5.70;;;1.20;;
41861;SDS011;27537;57.134;-2.136;2022-08-20T12:44:58;7.05;;;1.63;;
41861;SDS011;27537;57.134;-2.136;2022-08-20T12:47:27;5.60;;;1.10;;
41861;SDS011;27537;57.134;-2.136;2022-08-20T12:50:13;4.68;;;1.20;;
41861;SDS011;27537;57.134;-2.136;2022-08-20T12:52:43;9.15;;;1.52;;
41861;SDS011;27537;57.134;-2.136;2022-08-20T12:55:11;5.95;;;1.38;;
41861;SDS011;27537;57.134;-2.136;2022-08-20T12:57:45;6.10;;;1.20;;
41861;SDS011;27537;57.134;-2.136;2022-08-20T13:02:51;6.75;;;1.42;;
41861;SDS011;27537;57.134;-2.136;2022-08-20T13:05:19;8.00;;;1.40;;
41861;SDS011;27537;57.134;-2.136;2022-08-20T13:07:47;7.75;;;1.35;;
41861;SDS011;27537;57.134;-2.136;2022-08-20T13:10:32;5.03;;;1.30;;
41861;SDS011;27537;57.134;-2.136;2022-08-20T13:13:00;7.15;;;1.45;;
41861;SDS011;27537;57.134;-2.136;2022-08-20T13:15:31;5.28;;;1.00;;
41861;SDS011;27537;57.134;-2.136;2022-08-20T13:17:59;6.28;;;1.45;;
41861;SDS011;27537;57.134;-2.136;2022-08-20T13:20:27;5.40;;;1.10;;
41861;SDS011;27537;57.134;-2.136;2022-08-20T13:23:00;5.40;;;1.13;;
41861;SDS011;27537;57.134;-2.136;2022-08-20T13:25:29;6.32;;;1.23;;
41861;SDS011;27537;57.134;-2.136;2022-08-20T13:28:00;4.65;;;1.02;;
41861;SDS011;27537;57.134;-2.136;2022-08-20T13:30:30;5.57;;;1.25;;
41861;SDS011;27537;57.134;-2.136;2022-08-20T13:32:59;7.95;;;1.02;;
41861;SDS011;27537;57.134;-2.136;2022-08-20T13:35:25;8.00;;;1.70;;
41861;SDS011;27537;57.134;-2.136;2022-08-20T13:37:52;8.88;;;1.33;;
41861;SDS011;27537;57.134;-2.136;2022-08-20T13:40:19;4.55;;;1.10;;
41861;SDS011;27537;57.134;-2.136;2022-08-20T13:42:46;6.20;;;1.10;;
41861;SDS011;27537;57.134;-2.136;2022-08-20T13:45:13;6.65;;;1.20;;
41861;SDS011;27537;57.134;-2.136;2022-08-20T13:47:40;5.22;;;1.13;;
41861;SDS011;27537;57.134;-2.136;2022-08-20T13:52:38;5.53;;;1.27;;
41861;SDS011;27537;57.134;-2.136;2022-08-20T13:55:08;6.68;;;1.30;;
41861;SDS011;27537;57.134;-2.136;2022-08-20T13:57:37;9.98;;;1.60;;
41861;SDS011;27537;57.134;-2.136;2022-08-20T14:00:04;7.63;;;1.15;;
41861;SDS011;27537;57.134;-2.136;2022-08-20T14:02:35;6.80;;;1.40;;
41861;SDS011;27537;57.134;-2.136;2022-08-20T14:05:04;6.60;;;1.13;;
41861;SDS011;27537;57.134;-2.136;2022-08-20T14:07:32;6.25;;;1.20;;
41861;SDS011;27537;57.134;-2.136;2022-08-20T14:10:00;7.25;;;1.10;;
41861;SDS011;27537;57.134;-2.136;2022-08-20T14:12:32;3.78;;;0.90;;
41861;SDS011;27537;57.134;-2.136;2022-08-20T14:14:59;4.22;;;0.90;;
41861;SDS011;27537;57.134;-2.136;2022-08-20T14:17:36;8.57;;;1.25;;
41861;SDS011;27537;57.134;-2.136;2022-08-20T14:20:06;6.72;;;1.25;;
41861;SDS011;27537;57.134;-2.136;2022-08-20T14:25:05;5.03;;;1.00;;
41861;SDS011;27537;57.134;-2.136;2022-08-20T14:27:33;5.25;;;1.00;;
41861;SDS011;27537;57.134;-2.136;2022-08-20T14:30:02;5.00;;;1.00;;
41861;SDS011;27537;57.134;-2.136;2022-08-20T14:32:31;3.47;;;1.00;;
41861;SDS011;27537;57.134;-2.136;2022-08-20T14:34:58;3.95;;;1.00;;
41861;SDS011;27537;57.134;-2.136;2022-08-20T14:37:28;5.65;;;1.30;;
41861;SDS011;27537;57.134;-2.136;2022-08-20T14:40:00;5.35;;;0.93;;
41861;SDS011;27537;57.134;-2.136;2022-08-20T14:42:28;7.85;;;1.38;;
41861;SDS011;27537;57.134;-2.136;2022-08-20T14:44:56;9.35;;;1.30;;
41861;SDS011;27537;57.134;-2.136;2022-08-20T14:47:31;5.57;;;1.00;;
41861;SDS011;27537;57.134;-2.136;2022-08-20T14:50:00;5.05;;;1.20;;
41861;SDS011;27537;57.134;-2.136;2022-08-20T14:52:30;9.00;;;1.88;;
41861;SDS011;27537;57.134;-2.136;2022-08-20T14:55:02;5.07;;;1.17;;
41861;SDS011;27537;57.134;-2.136;2022-08-20T14:57:30;7.53;;;1.30;;
41861;SDS011;27537;57.134;-2.136;2022-08-20T14:59:57;5.55;;;1.20;;